Time;durP1;ratioP1;P1;durP2;ratioP2;P2;SDS_P1;SDS_P2;PMS_P1;PMS_P2;Temp;Humidity;BMP_temperature;BMP_pressure;BME280_temperature;BME280_humidity;BME280_pressure;Samples;Min_cycle;Max_cycle;Signal;HPM_P1;HPM_P2
2022/11/29 00:01:37;;;;;;;8.57;4.57;;;7.20;99.90;;;;;;5095235;28;20038;-82
2022/11/29 00:04:12;;;;;;;10.13;4.63;;;8.90;99.90;;;;;;5079847;28;20474;-82
2022/11/29 00:06:46;;;;;;;6.97;3.92;;;8.10;99.90;;;;;;5061601;28;20036;-82
2022/11/29 00:09:12;;;;;;;11.57;4.38;;;7.20;99.90;;;;;;5062490;28;20625;-82
2022/11/29 00:14:27;;;;;;;7.20;3.95;;;8.40;99.90;;;;;;5089472;28;20067;-82
2022/11/29 00:17:00;;;;;;;8.27;3.78;;;7.10;99.90;;;;;;5077734;28;20094;-82
2022/11/29 00:19:33;;;;;;;9.70;4.07;;;7.10;99.90;;;;;;5069773;28;20043;-82
2022/11/29 00:22:01;;;;;;;7.68;4.15;;;7.00;99.90;;;;;;5092231;28;20066;-81
2022/11/29 00:24:30;;;;;;;8.70;4.22;;;7.90;99.90;;;;;;5076241;28;20040;-81
2022/11/29 00:26:56;;;;;;;7.32;3.80;;;7.00;99.90;;;;;;5080590;28;20039;-81
2022/11/29 00:29:21;;;;;;;7.90;4.15;;;7.90;99.90;;;;;;5113549;28;20136;-81
2022/11/29 00:31:52;;;;;;;8.30;4.55;;;8.30;99.90;;;;;;5096035;28;20062;-81
2022/11/29 00:34:21;;;;;;;11.05;5.38;;;5.70;99.90;;;;;;5061389;28;20124;-81
2022/11/29 00:36:55;;;;;;;9.10;4.60;;;6.90;99.90;;;;;;5059943;28;20040;-81
2022/11/29 00:39:29;;;;;;;13.00;4.32;;;6.80;99.90;;;;;;5044485;28;20070;-81
2022/11/29 00:41:55;;;;;;;8.60;3.90;;;7.10;99.90;;;;;;5078815;28;20366;-81
2022/11/29 00:44:26;;;;;;;8.00;4.20;;;6.80;99.90;;;;;;5078021;28;20046;-81
2022/11/29 00:47:01;;;;;;;7.53;3.95;;;6.00;99.90;;;;;;5062343;28;20124;-81
2022/11/29 00:49:32;;;;;;;10.02;3.90;;;6.90;99.90;;;;;;5112657;28;20048;-81
2022/11/29 00:52:04;;;;;;;13.38;3.83;;;7.60;99.90;;;;;;5081101;28;20102;-81
2022/11/29 00:54:30;;;;;;;9.50;4.40;;;;;;;;;;5098026;28;20471;-81
2022/11/29 00:56:56;;;;;;;8.52;4.47;;;6.70;99.90;;;;;;5097738;28;20035;-81
2022/11/29 00:59:32;;;;;;;14.65;5.13;;;7.70;99.90;;;;;;5089605;28;20509;-81
2022/11/29 01:02:04;;;;;;;6.90;3.67;;;8.20;99.90;;;;;;5071753;28;20044;-81
2022/11/29 01:04:36;;;;;;;7.13;3.53;;;6.70;99.90;;;;;;5082100;28;20046;-81
2022/11/29 01:07:04;;;;;;;6.40;3.63;;;6.60;99.90;;;;;;5065707;28;20118;-81
2022/11/29 01:09:30;;;;;;;7.10;3.85;;;6.90;99.90;;;;;;5080793;28;20046;-82
2022/11/29 01:12:11;;;;;;;;;;;;;;;;;;;;;
2022/11/29 01:14:41;;;;;;;7.38;4.10;;;6.90;99.90;;;;;;5097517;28;20056;-82
2022/11/29 01:17:07;;;;;;;9.00;4.97;;;6.60;99.90;;;;;;5080617;28;20154;-82
2022/11/29 01:19:33;;;;;;;6.93;3.72;;;6.60;99.90;;;;;;5097375;28;20134;-82
2022/11/29 01:21:59;;;;;;;7.25;4.40;;;6.60;99.90;;;;;;5080123;28;20055;-82
2022/11/29 01:24:32;;;;;;;9.32;4.50;;;6.60;99.90;;;;;;5080528;28;20070;-83
2022/11/29 01:27:16;;;;;;;7.68;4.13;;;8.00;99.90;;;;;;5097232;28;20368;-81
2022/11/29 01:29:44;;;;;;;8.57;4.13;;;8.00;99.90;;;;;;5098355;28;20082;-81
2022/11/29 01:32:13;;;;;;;7.72;4.07;;;6.50;99.90;;;;;;5081071;28;20071;-81
2022/11/29 01:34:42;;;;;;;7.28;4.10;;;6.40;99.90;;;;;;5079547;28;20138;-81
2022/11/29 01:37:17;;;;;;;6.28;3.50;;;7.90;99.90;;;;;;5082173;28;20062;-81
2022/11/29 01:39:53;;;;;;;7.90;3.92;;;6.40;99.90;;;;;;5097237;28;20479;-81
2022/11/29 01:42:27;;;;;;;9.85;4.25;;;6.40;99.90;;;;;;5045669;28;20039;-81
2022/11/29 01:45:13;;;;;;;7.15;3.80;;;6.20;99.90;;;;;;5056003;28;20036;-82
2022/11/29 01:47:45;;;;;;;9.43;4.40;;;6.40;99.90;;;;;;5072026;28;20052;-82
2022/11/29 01:50:15;;;;;;;7.40;3.85;;;6.40;99.90;;;;;;5096431;28;20052;-82
2022/11/29 01:52:41;;;;;;;9.60;4.03;;;6.40;99.90;;;;;;5060230;28;20117;-82
2022/11/29 01:55:11;;;;;;;8.85;3.45;;;6.80;99.90;;;;;;5054736;28;20069;-82
2022/11/29 01:57:40;;;;;;;6.80;3.88;;;6.30;99.90;;;;;;5079557;28;20078;-82
2022/11/29 02:00:16;;;;;;;6.85;3.55;;;6.30;99.90;;;;;;5080037;28;20403;-82
2022/11/29 02:03:01;;;;;;;8.07;4.00;;;6.30;99.90;;;;;;5076041;28;20040;-82
2022/11/29 02:05:32;;;;;;;7.38;4.03;;;6.20;99.90;;;;;;5109830;27;20047;-82
2022/11/29 02:08:01;;;;;;;7.20;3.75;;;6.20;99.90;;;;;;5063710;28;20030;-82
2022/11/29 02:10:52;;;;;;;11.38;4.03;;;7.30;99.90;;;;;;5080907;28;20044;-82
2022/11/29 02:13:45;;;;;;;10.35;3.90;;;6.90;99.90;;;;;;5080127;28;20054;-82
2022/11/29 02:16:27;;;;;;;7.03;4.05;;;6.10;99.90;;;;;;5097049;28;20110;-82
2022/11/29 02:19:24;;;;;;;7.25;3.47;;;7.30;99.90;;;;;;5079969;28;20364;-81
2022/11/29 02:22:15;;;;;;;9.65;3.63;;;5.90;99.90;;;;;;5079805;28;20032;-81
2022/11/29 02:25:05;;;;;;;6.25;3.60;;;6.10;99.90;;;;;;5079555;28;20074;-81
2022/11/29 02:28:06;;;;;;;8.65;3.83;;;6.00;99.90;;;;;;5075854;28;20088;-81
2022/11/29 02:30:51;;;;;;;4.85;2.92;;;6.00;99.90;;;;;;5096833;28;20040;-81
2022/11/29 02:33:35;;;;;;;6.32;3.10;;;7.20;99.90;;;;;;5096164;28;20457;-82
2022/11/29 02:36:35;;;;;;;6.32;3.30;;;6.00;99.90;;;;;;5079306;28;20486;-82
2022/11/29 02:39:38;;;;;;;11.10;3.53;;;6.00;99.90;;;;;;5075855;28;20035;-83
2022/11/29 02:42:18;;;;;;;8.30;3.47;;;5.90;99.90;;;;;;5084055;28;20040;-82
2022/11/29 02:44:49;;;;;;;5.00;2.92;;;5.90;99.90;;;;;;5080399;28;20036;-82
2022/11/29 02:47:24;;;;;;;7.22;3.47;;;5.80;99.90;;;;;;5079411;28;20039;-82
2022/11/29 02:50:17;;;;;;;6.43;3.80;;;6.70;99.90;;;;;;5079012;28;20099;-82
2022/11/29 02:53:04;;;;;;;5.30;3.10;;;5.90;99.90;;;;;;5079280;28;20035;-82
2022/11/29 02:55:56;;;;;;;5.65;3.22;;;5.80;99.90;;;;;;5079547;28;20105;-82
2022/11/29 02:58:27;;;;;;;7.35;3.90;;;7.10;99.90;;;;;;5038558;28;20043;-82
2022/11/29 03:01:16;;;;;;;6.53;3.83;;;5.80;99.90;;;;;;5079076;28;20047;-82
2022/11/29 03:04:01;;;;;;;6.43;3.35;;;5.80;99.90;;;;;;5079021;28;20049;-82
2022/11/29 03:06:50;;;;;;;6.72;3.88;;;5.80;99.90;;;;;;5069675;28;20118;-84
2022/11/29 03:09:36;;;;;;;6.10;3.15;;;5.90;99.90;;;;;;5079668;28;20378;-84
2022/11/29 03:12:28;;;;;;;5.97;3.37;;;5.80;99.90;;;;;;5079041;28;20036;-84
2022/11/29 03:15:29;;;;;;;6.05;3.10;;;5.80;99.90;;;;;;5077976;28;20056;-84
2022/11/29 03:18:24;;;;;;;8.43;3.58;;;5.80;99.90;;;;;;5078330;28;20515;-84
2022/11/29 03:21:09;;;;;;;5.90;3.30;;;6.50;99.90;;;;;;5077822;28;20479;-84
2022/11/29 03:24:01;;;;;;;7.30;3.45;;;5.70;99.90;;;;;;5086397;28;20054;-84
2022/11/29 03:26:48;;;;;;;6.38;3.60;;;7.20;99.90;;;;;;5079702;28;20097;-84
2022/11/29 03:29:23;;;;;;;7.97;3.72;;;5.70;99.90;;;;;;5078582;28;20043;-84
2022/11/29 03:31:57;;;;;;;7.05;3.53;;;5.70;99.90;;;;;;5094648;28;20043;-84
2022/11/29 03:34:42;;;;;;;5.78;3.03;;;6.50;99.90;;;;;;5078670;28;20039;-84
2022/11/29 03:37:43;;;;;;;5.80;3.47;;;5.70;99.90;;;;;;5058607;28;20040;-84
2022/11/29 03:40:18;;;;;;;8.15;3.78;;;5.70;99.90;;;;;;5041866;28;20101;-83
2022/11/29 03:43:17;;;;;;;6.05;3.13;;;5.70;99.90;;;;;;5076873;28;20043;-83
2022/11/29 03:46:05;;;;;;;6.10;3.35;;;5.80;99.90;;;;;;5052327;28;20123;-83
2022/11/29 03:48:42;;;;;;;7.45;3.88;;;5.70;99.90;;;;;;5078584;28;20056;-83
2022/11/29 03:51:50;;;;;;;5.60;2.95;;;5.70;99.90;;;;;;5095080;28;20040;-82
2022/11/29 03:54:24;;;;;;;5.38;2.80;;;5.60;99.90;;;;;;5071480;28;20091;-82
2022/11/29 03:56:50;;;;;;;6.03;3.33;;;7.00;99.90;;;;;;5078589;28;20100;-81
2022/11/29 03:59:19;;;;;;;10.05;3.60;;;5.60;99.90;;;;;;5059050;28;20172;-81
2022/11/29 04:02:12;;;;;;;6.60;3.15;;;5.40;99.90;;;;;;5071408;28;20435;-81
2022/11/29 04:04:41;;;;;;;5.85;3.40;;;5.40;99.90;;;;;;5071026;28;20035;-81
2022/11/29 04:07:20;;;;;;;6.68;3.42;;;5.60;99.90;;;;;;5080916;28;20515;-81
2022/11/29 04:10:08;;;;;;;5.07;2.88;;;5.50;99.90;;;;;;5067120;28;20495;-81
2022/11/29 04:12:48;;;;;;;5.90;3.28;;;5.50;99.90;;;;;;5110306;28;20050;-81
2022/11/29 04:15:45;;;;;;;5.75;3.03;;;6.60;99.90;;;;;;5113775;28;20114;-82
2022/11/29 04:18:34;;;;;;;5.88;3.00;;;5.50;99.90;;;;;;5078220;28;20043;-82
2022/11/29 04:21:17;;;;;;;5.22;2.95;;;5.50;99.90;;;;;;5113337;28;20118;-82
2022/11/29 04:24:07;;;;;;;6.32;3.40;;;5.40;99.90;;;;;;5078377;28;20036;-82
2022/11/29 04:27:03;;;;;;;8.80;3.78;;;3.70;99.90;;;;;;5079462;28;20043;-82
2022/11/29 04:30:06;;;;;;;7.75;3.95;;;5.40;99.90;;;;;;5081905;28;20036;-81
2022/11/29 04:32:50;;;;;;;5.75;3.70;;;5.40;99.90;;;;;;5099322;28;20043;-81
2022/11/29 04:35:51;;;;;;;6.72;3.00;;;6.10;99.90;;;;;;5099193;28;20558;-81
2022/11/29 04:38:59;;;;;;;6.93;3.13;;;5.40;99.90;;;;;;5094459;28;20035;-81
2022/11/29 04:41:34;;;;;;;5.43;2.70;;;5.40;99.90;;;;;;5098714;28;20044;-81
2022/11/29 04:44:48;;;;;;;11.60;3.70;;;5.90;99.90;;;;;;5074824;28;20031;-81
2022/11/29 04:47:36;;;;;;;6.63;3.72;;;4.10;99.90;;;;;;5077163;28;20043;-84
2022/11/29 04:50:39;;;;;;;5.45;3.05;;;5.50;99.90;;;;;;5077762;28;20407;-84
2022/11/29 04:53:28;;;;;;;11.38;3.67;;;5.50;99.90;;;;;;5066962;28;20135;-84
2022/11/29 04:56:13;;;;;;;6.35;3.63;;;5.60;99.90;;;;;;5077700;28;20040;-84
2022/11/29 04:58:49;;;;;;;4.82;2.95;;;5.50;99.90;;;;;;5078224;28;20080;-84
2022/11/29 05:01:45;;;;;;;9.65;3.92;;;5.60;99.90;;;;;;5078124;28;20036;-84
2022/11/29 05:04:43;;;;;;;6.30;3.50;;;5.50;99.90;;;;;;5078768;28;20028;-81
2022/11/29 05:07:45;;;;;;;7.25;4.18;;;3.90;99.90;;;;;;5077265;28;20068;-81
2022/11/29 05:10:53;;;;;;;8.07;3.60;;;5.40;99.90;;;;;;5086372;28;20043;-81
2022/11/29 05:13:42;;;;;;;8.07;3.83;;;5.50;99.90;;;;;;5093866;28;20043;-81
2022/11/29 05:16:20;;;;;;;8.45;4.20;;;5.30;99.90;;;;;;5077576;28;20097;-81
2022/11/29 05:19:15;;;;;;;7.25;3.90;;;5.50;99.90;;;;;;5076996;28;20035;-81
2022/11/29 05:21:59;;;;;;;7.10;3.72;;;5.40;99.90;;;;;;5078127;28;20036;-82
2022/11/29 05:24:31;;;;;;;9.23;4.20;;;;;;;;;;5063488;28;20119;-82
2022/11/29 05:27:15;;;;;;;7.38;3.78;;;5.40;99.90;;;;;;5077853;28;20115;-82
2022/11/29 05:30:11;;;;;;;6.93;3.40;;;5.40;99.90;;;;;;5077867;28;20047;-82
2022/11/29 05:33:02;;;;;;;10.50;3.58;;;5.40;99.90;;;;;;5076946;28;20055;-82
2022/11/29 05:36:10;;;;;;;6.82;3.97;;;5.40;99.90;;;;;;5077642;28;20365;-82
2022/11/29 05:38:54;;;;;;;8.85;3.75;;;5.30;99.90;;;;;;5066936;28;20040;-81
2022/11/29 05:41:44;;;;;;;7.03;3.70;;;6.20;99.90;;;;;;5077286;28;20048;-80
2022/11/29 05:44:25;;;;;;;7.65;3.80;;;5.20;99.90;;;;;;5086549;28;20452;-81
2022/11/29 05:47:04;;;;;;;9.10;4.80;;;5.30;99.90;;;;;;5070820;28;20050;-81
2022/11/29 05:49:35;;;;;;;9.10;4.13;;;5.20;99.90;;;;;;5077133;28;20052;-81
2022/11/29 05:52:37;;;;;;;9.60;4.25;;;5.30;99.90;;;;;;5060663;28;20059;-81
2022/11/29 05:55:33;;;;;;;17.70;4.20;;;5.20;99.90;;;;;;5090869;28;20044;-82
2022/11/29 05:58:17;;;;;;;7.40;3.72;;;5.20;99.90;;;;;;5073627;28;20481;-82
2022/11/29 06:01:16;;;;;;;8.15;3.65;;;5.10;99.90;;;;;;5074341;28;20458;-82
2022/11/29 06:03:59;;;;;;;6.82;3.67;;;5.10;99.90;;;;;;5077263;28;20041;-82
2022/11/29 06:06:42;;;;;;;7.40;4.18;;;5.20;99.90;;;;;;5077601;28;20048;-82
2022/11/29 06:09:31;;;;;;;7.28;4.15;;;5.10;99.90;;;;;;5078333;28;20063;-82
2022/11/29 06:12:05;;;;;;;8.48;4.28;;;5.10;99.90;;;;;;5093412;28;20170;-82
2022/11/29 06:15:03;;;;;;;5.80;3.25;;;5.10;99.90;;;;;;5093548;28;20055;-82
2022/11/29 06:17:52;;;;;;;6.90;3.42;;;5.90;99.90;;;;;;5034472;28;20047;-82
2022/11/29 06:20:22;;;;;;;6.50;3.75;;;6.50;99.90;;;;;;5076379;28;20048;-82
2022/11/29 06:23:31;;;;;;;6.60;3.20;;;5.00;99.90;;;;;;5075345;28;20066;-82
2022/11/29 06:26:08;;;;;;;6.50;3.78;;;6.40;99.90;;;;;;5067806;28;20071;-82
2022/11/29 06:29:17;;;;;;;7.50;4.18;;;5.00;99.90;;;;;;5088901;28;20079;-81
2022/11/29 06:31:52;;;;;;;8.35;4.30;;;5.00;99.90;;;;;;5095666;28;20142;-81
2022/11/29 06:34:46;;;;;;;11.00;4.53;;;5.20;99.90;;;;;;5074658;28;20043;-81
2022/11/29 06:37:35;;;;;;;9.48;4.05;;;5.00;99.90;;;;;;5081081;28;20071;-81
2022/11/29 06:40:01;;;;;;;9.55;4.20;;;;;;;;;;5091745;28;20070;-81
2022/11/29 06:42:27;;;;;;;7.50;4.07;;;5.00;99.90;;;;;;5055317;28;20060;-81
2022/11/29 06:44:53;;;;;;;10.45;3.95;;;6.10;99.90;;;;;;5075273;28;20032;-84
2022/11/29 06:47:51;;;;;;;17.08;4.70;;;4.90;99.90;;;;;;5091581;28;20052;-84
2022/11/29 06:50:26;;;;;;;;;;;4.90;99.90;;;;;;5089959;28;20076;-84
2022/11/29 06:53:05;;;;;;;8.50;3.60;;;4.90;99.90;;;;;;5070935;28;19917;-84
2022/11/29 06:55:49;;;;;;;6.93;3.53;;;3.90;99.90;;;;;;5070185;28;20051;-84
2022/11/29 06:59:01;;;;;;;9.75;3.40;;;4.90;99.90;;;;;;5070033;28;20048;-84
2022/11/29 07:01:35;;;;;;;8.40;3.50;;;5.00;99.90;;;;;;5079929;28;20044;-82
2022/11/29 07:04:13;;;;;;;7.90;4.30;;;5.00;99.90;;;;;;5091754;28;20136;-82
2022/11/29 07:06:42;;;;;;;8.23;3.53;;;5.00;99.90;;;;;;5072839;28;20044;-82
2022/11/29 07:09:13;;;;;;;9.88;4.07;;;5.10;99.90;;;;;;5060804;28;20035;-82
2022/11/29 07:11:45;;;;;;;7.82;3.60;;;5.10;99.90;;;;;;5073260;28;20079;-82
2022/11/29 07:14:11;;;;;;;8.57;3.75;;;5.10;99.90;;;;;;5072808;28;20067;-82
2022/11/29 07:16:53;;;;;;;8.13;3.97;;;5.10;99.90;;;;;;5074114;28;20436;-81
2022/11/29 07:19:57;;;;;;;7.72;3.70;;;5.20;99.90;;;;;;5091379;28;20540;-80
2022/11/29 07:23:01;;;;;;;8.80;4.03;;;6.70;99.90;;;;;;5081979;28;20051;-80
2022/11/29 07:25:41;;;;;;;7.38;3.78;;;6.50;99.90;;;;;;5045481;28;20395;-80
2022/11/29 07:28:19;;;;;;;8.85;4.07;;;5.20;99.90;;;;;;5081766;28;20107;-81
2022/11/29 07:31:09;;;;;;;9.45;4.88;;;5.40;99.90;;;;;;5082326;28;20059;-81
2022/11/29 07:33:41;;;;;;;9.35;4.68;;;5.40;99.90;;;;;;5081916;28;20493;-81
2022/11/29 07:36:34;;;;;;;8.48;3.60;;;5.30;99.90;;;;;;5073037;28;20093;-81
2022/11/29 07:39:18;;;;;;;10.05;4.03;;;5.30;99.90;;;;;;5048255;28;20444;-81
2022/11/29 07:41:49;;;;;;;8.60;3.20;;;6.60;99.90;;;;;;5089170;28;20039;-81
2022/11/29 07:44:45;;;;;;;9.05;3.90;;;5.50;99.90;;;;;;5088593;28;20039;-81
2022/11/29 07:47:11;;;;;;;8.52;3.90;;;5.50;99.90;;;;;;5107629;28;20056;-81
2022/11/29 07:49:37;;;;;;;7.97;3.85;;;5.50;99.90;;;;;;5090572;28;20052;-81
2022/11/29 07:52:03;;;;;;;9.55;4.20;;;5.60;99.90;;;;;;5089001;28;20054;-81
2022/11/29 07:54:29;;;;;;;7.68;3.90;;;5.60;99.90;;;;;;5074090;28;20126;-81
2022/11/29 07:56:55;;;;;;;7.75;3.60;;;5.70;99.90;;;;;;5081912;28;20464;-81
2022/11/29 07:59:20;;;;;;;8.40;3.78;;;5.70;99.90;;;;;;5052304;28;20135;-81
2022/11/29 08:01:46;;;;;;;13.32;4.15;;;5.70;99.90;;;;;;5064783;28;20489;-81
2022/11/29 08:04:12;;;;;;;11.82;4.45;;;5.80;99.90;;;;;;5070178;28;20377;-81
2022/11/29 08:06:39;;;;;;;8.60;4.20;;;7.20;99.90;;;;;;5070566;28;20044;-81
2022/11/29 08:09:06;;;;;;;7.32;3.97;;;5.80;99.90;;;;;;5057102;28;20044;-81
2022/11/29 08:11:32;;;;;;;7.65;4.15;;;5.80;99.90;;;;;;5057697;28;20072;-80
2022/11/29 08:13:59;;;;;;;6.32;3.28;;;5.80;99.90;;;;;;5077091;28;20090;-81
2022/11/29 08:16:25;;;;;;;7.35;4.25;;;7.50;99.90;;;;;;5076859;28;20043;-81
2022/11/29 08:18:51;;;;;;;9.65;3.63;;;7.20;99.90;;;;;;5076953;28;20044;-80
2022/11/29 08:21:17;;;;;;;10.65;4.57;;;6.00;99.90;;;;;;5093426;28;20123;-81
2022/11/29 08:23:50;;;;;;;8.98;4.22;;;5.90;99.90;;;;;;5077636;28;20074;-81
2022/11/29 08:26:17;;;;;;;11.35;3.55;;;5.90;99.90;;;;;;5094942;28;20036;-80
2022/11/29 08:28:43;;;;;;;8.20;3.75;;;7.50;99.90;;;;;;5078059;28;20123;-81
2022/11/29 08:31:11;;;;;;;8.55;3.38;;;6.00;99.90;;;;;;5092914;28;20415;-81
2022/11/29 08:33:41;;;;;;;7.78;3.95;;;6.10;99.90;;;;;;5092515;28;20480;-81
2022/11/29 08:36:11;;;;;;;7.15;3.08;;;6.10;99.90;;;;;;5074620;28;20039;-80
2022/11/29 08:38:36;;;;;;;7.78;4.07;;;6.20;99.90;;;;;;5093801;28;20036;-81
2022/11/29 08:41:04;;;;;;;6.95;3.40;;;6.90;99.90;;;;;;5093999;28;20376;-81
2022/11/29 08:43:30;;;;;;;7.80;3.50;;;6.20;99.90;;;;;;5093805;28;20511;-81
2022/11/29 08:45:57;;;;;;;13.95;4.70;;;6.50;99.90;;;;;;5073365;28;20102;-81
2022/11/29 08:48:23;;;;;;;11.45;3.65;;;6.40;99.90;;;;;;5064935;28;20430;-81
2022/11/29 08:50:50;;;;;;;10.23;3.28;;;6.50;99.90;;;;;;5090595;28;20046;-81
2022/11/29 08:56:01;;;;;;;7.25;3.15;;;6.40;99.90;;;;;;5102762;27;20372;-81
2022/11/29 08:58:27;;;;;;;6.95;3.63;;;6.50;99.90;;;;;;5095633;28;20047;-82
2022/11/29 09:00:53;;;;;;;6.22;3.08;;;6.50;99.90;;;;;;5096637;28;20425;-82
2022/11/29 09:06:11;;;;;;;9.07;3.65;;;6.60;99.90;;;;;;5097094;28;20044;-82
2022/11/29 09:08:37;;;;;;;8.10;2.83;;;6.60;99.90;;;;;;5091928;28;20475;-82
2022/11/29 09:11:07;;;;;;;11.50;3.65;;;6.60;99.90;;;;;;5062655;28;20043;-82
2022/11/29 09:13:33;;;;;;;9.15;3.20;;;6.70;99.90;;;;;;5092095;28;20401;-82
2022/11/29 09:16:04;;;;;;;9.18;3.38;;;6.80;99.90;;;;;;5087582;28;20044;-82
2022/11/29 09:18:33;;;;;;;9.82;2.78;;;6.70;99.90;;;;;;5084161;27;20043;-82
2022/11/29 09:20:58;;;;;;;7.53;2.92;;;6.80;99.90;;;;;;5071698;27;20035;-82
2022/11/29 09:23:24;;;;;;;5.82;2.42;;;6.90;99.90;;;;;;5105686;28;20050;-82
2022/11/29 09:25:50;;;;;;;13.27;3.65;;;6.90;99.90;;;;;;5071761;27;20027;-82
2022/11/29 09:28:16;;;;;;;5.53;2.50;;;7.00;99.90;;;;;;5069484;27;20360;-82
2022/11/29 09:30:41;;;;;;;8.70;2.55;;;7.10;99.90;;;;;;5101708;28;20032;-81
2022/11/29 09:33:07;;;;;;;5.82;2.50;;;7.20;99.90;;;;;;5089224;27;20043;-81
2022/11/29 09:35:33;;;;;;;14.27;3.85;;;7.30;99.90;;;;;;5098302;28;20043;-81
2022/11/29 09:37:59;;;;;;;12.52;3.47;;;7.50;99.90;;;;;;5095115;27;20509;-81
2022/11/29 09:40:44;;;;;;;13.43;3.55;;;7.60;99.90;;;;;;5100377;27;20134;-81
2022/11/29 09:43:31;;;;;;;11.90;2.63;;;7.60;99.90;;;;;;5087030;27;20031;-81
2022/11/29 09:46:21;;;;;;;10.00;2.83;;;7.70;99.90;;;;;;5098246;27;20475;-81
2022/11/29 09:49:08;;;;;;;9.65;2.75;;;7.80;99.90;;;;;;5094555;27;20054;-81
2022/11/29 09:51:57;;;;;;;13.70;2.83;;;8.00;99.90;;;;;;5093666;27;20050;-81
2022/11/29 09:54:32;;;;;;;8.90;2.72;;;9.70;99.90;;;;;;5098511;27;20118;-81
2022/11/29 09:56:57;;;;;;;5.78;2.47;;;8.20;99.90;;;;;;5077225;28;20044;-81
2022/11/29 09:59:29;;;;;;;9.60;2.53;;;8.20;99.90;;;;;;5088079;28;20174;-82
2022/11/29 10:02:14;;;;;;;5.75;2.75;;;9.60;99.90;;;;;;5102506;28;20167;-82
2022/11/29 10:04:45;;;;;;;10.40;2.53;;;8.40;99.90;;;;;;5097455;22;20052;-82
2022/11/29 10:07:20;;;;;;;8.80;2.42;;;8.30;99.90;;;;;;5075862;28;20488;-82
2022/11/29 10:09:57;;;;;;;12.73;3.55;;;8.30;99.90;;;;;;5082611;28;20483;-82
2022/11/29 10:12:38;;;;;;;5.07;2.30;;;8.20;99.90;;;;;;5076541;28;20040;-82
2022/11/29 10:15:38;;;;;;;5.15;2.15;;;8.10;99.90;;;;;;5081997;28;20385;-82
2022/11/29 10:18:13;;;;;;;4.47;2.47;;;8.10;99.90;;;;;;5055561;28;20056;-84
2022/11/29 10:20:43;;;;;;;7.72;2.60;;;8.20;99.90;;;;;;5078373;28;20040;-84
2022/11/29 10:23:34;;;;;;;11.23;3.55;;;8.30;99.90;;;;;;5075327;28;20092;-84
2022/11/29 10:26:00;;;;;;;4.85;2.30;;;8.50;99.90;;;;;;5098226;28;20391;-84
2022/11/29 10:28:32;;;;;;;9.55;2.80;;;8.50;99.90;;;;;;5083374;28;20054;-84
2022/11/29 10:31:25;;;;;;;8.65;2.63;;;9.00;99.90;;;;;;5097222;28;20024;-84
2022/11/29 10:33:53;;;;;;;8.15;2.72;;;9.10;99.90;;;;;;5135138;27;20123;-84
2022/11/29 10:36:28;;;;;;;6.63;3.38;;;9.20;99.90;;;;;;5090786;28;20040;-81
2022/11/29 10:39:04;;;;;;;4.30;2.40;;;9.20;99.90;;;;;;5086654;28;20047;-81
2022/11/29 10:41:30;;;;;;;7.90;2.67;;;9.20;99.90;;;;;;5084950;28;20415;-81
2022/11/29 10:43:58;;;;;;;8.68;2.33;;;9.30;99.90;;;;;;5083772;28;20046;-81
2022/11/29 10:46:27;;;;;;;9.75;3.03;;;9.20;99.90;;;;;;5089465;28;20072;-81
2022/11/29 10:48:53;;;;;;;7.13;4.20;;;9.20;99.90;;;;;;5096983;28;20405;-81
2022/11/29 10:51:19;;;;;;;9.88;2.85;;;9.20;99.90;;;;;;5087965;28;20122;-81
2022/11/29 10:53:45;;;;;;;8.35;2.65;;;9.10;99.90;;;;;;5073305;28;20451;-83
2022/11/29 10:56:34;;;;;;;7.07;2.40;;;9.10;99.90;;;;;;5092920;28;20110;-82
2022/11/29 10:59:07;;;;;;;9.32;2.33;;;9.10;99.90;;;;;;5065329;28;20086;-83
2022/11/29 11:01:37;;;;;;;8.93;2.72;;;9.10;99.90;;;;;;5060808;28;20071;-82
2022/11/29 11:04:06;;;;;;;6.00;2.10;;;9.20;99.90;;;;;;5090275;28;20500;-83
2022/11/29 11:06:48;;;;;;;5.47;2.25;;;9.20;99.90;;;;;;5076233;28;20041;-83
2022/11/29 11:09:38;;;;;;;11.15;2.40;;;9.30;99.90;;;;;;5078036;28;20058;-83
2022/11/29 11:12:26;;;;;;;7.25;2.75;;;9.40;99.90;;;;;;5061004;28;20040;-83
2022/11/29 11:15:14;;;;;;;5.30;2.08;;;9.70;99.90;;;;;;5066414;28;20040;-83
2022/11/29 11:17:55;;;;;;;6.15;2.38;;;10.20;99.90;;;;;;5067759;28;20091;-84
2022/11/29 11:20:23;;;;;;;7.85;3.20;;;10.40;99.90;;;;;;5072320;28;20072;-83
2022/11/29 11:23:04;;;;;;;5.50;2.03;;;10.40;99.90;;;;;;5087270;28;20036;-83
2022/11/29 11:25:40;;;;;;;9.68;2.20;;;10.40;99.90;;;;;;5075035;28;20399;-83
2022/11/29 11:28:27;;;;;;;9.38;2.45;;;10.30;99.90;;;;;;5069475;28;20098;-81
2022/11/29 11:31:04;;;;;;;;;;;10.20;99.90;;;;;;5075777;28;20129;-81
2022/11/29 11:33:36;;;;;;;7.00;2.58;;;10.10;99.90;;;;;;5058878;28;19916;-81
2022/11/29 11:36:21;;;;;;;7.82;2.65;;;11.20;99.90;;;;;;5092267;28;20400;-81
2022/11/29 11:38:57;;;;;;;8.07;2.58;;;10.30;99.90;;;;;;5092589;28;20058;-81
2022/11/29 11:44:40;;;;;;;7.95;2.75;;;10.60;99.90;;;;;;5110921;28;20044;-82
2022/11/29 11:47:13;;;;;;;8.35;2.72;;;10.60;99.90;;;;;;5067618;28;20047;-82
2022/11/29 11:50:05;;;;;;;7.22;2.63;;;10.70;99.90;;;;;;5094639;28;20047;-82
2022/11/29 11:52:51;;;;;;;6.70;2.47;;;10.70;99.90;;;;;;5054769;28;20040;-82
2022/11/29 11:55:36;;;;;;;8.80;2.42;;;10.60;99.90;;;;;;5079224;28;20043;-82
2022/11/29 11:58:25;;;;;;;7.43;3.30;;;10.60;99.90;;;;;;5095269;28;20040;-82
2022/11/29 12:00:53;;;;;;;4.70;2.53;;;10.60;99.90;;;;;;5077430;28;20056;-82
2022/11/29 12:03:38;;;;;;;7.10;2.83;;;10.50;99.90;;;;;;5111063;28;20035;-82
2022/11/29 12:06:13;;;;;;;4.90;2.75;;;10.50;99.90;;;;;;5075226;28;20044;-82
2022/11/29 12:08:39;;;;;;;6.18;2.83;;;10.50;99.90;;;;;;5092970;28;20044;-82
2022/11/29 12:11:09;;;;;;;5.57;2.95;;;10.50;99.90;;;;;;5080564;28;20040;-82
2022/11/29 12:13:39;;;;;;;5.25;3.10;;;10.30;99.90;;;;;;5065402;28;20053;-82
2022/11/29 12:16:13;;;;;;;6.85;2.90;;;10.30;99.90;;;;;;5071386;28;20055;-82
2022/11/29 12:18:47;;;;;;;6.47;2.85;;;10.40;99.90;;;;;;5054984;28;20044;-81
2022/11/29 12:21:24;;;;;;;6.55;2.80;;;10.50;99.90;;;;;;5071948;28;20055;-81
2022/11/29 12:23:57;;;;;;;6.32;3.33;;;10.60;99.90;;;;;;5071755;28;20041;-82
2022/11/29 12:26:28;;;;;;;7.40;3.78;;;10.60;99.90;;;;;;5071758;28;20094;-82
2022/11/29 12:28:54;;;;;;;7.85;3.30;;;10.60;99.90;;;;;;5068252;28;20048;-82
2022/11/29 12:31:20;;;;;;;8.18;4.22;;;10.60;99.90;;;;;;5038202;28;20095;-82
2022/11/29 12:34:01;;;;;;;6.15;3.47;;;10.60;99.90;;;;;;5055218;28;20460;-85
2022/11/29 12:36:52;;;;;;;4.82;2.72;;;10.60;99.90;;;;;;5071949;28;20040;-87
2022/11/29 12:39:42;;;;;;;7.72;3.10;;;10.50;99.90;;;;;;5051561;28;20044;-85
2022/11/29 12:42:25;;;;;;;4.65;3.10;;;10.50;99.90;;;;;;5051147;28;20099;-85
2022/11/29 12:45:23;;;;;;;6.20;3.50;;;10.50;99.90;;;;;;5035221;28;20045;-85
2022/11/29 12:48:21;;;;;;;4.13;2.70;;;10.30;99.90;;;;;;5053124;28;20459;-84
2022/11/29 12:51:11;;;;;;;6.65;3.05;;;10.30;99.90;;;;;;5070490;28;20123;-81
2022/11/29 12:54:18;;;;;;;4.60;2.47;;;10.30;99.90;;;;;;5059214;28;20048;-81
2022/11/29 12:57:11;;;;;;;5.13;2.97;;;10.30;99.90;;;;;;5058515;28;20052;-81
2022/11/29 12:59:49;;;;;;;4.80;2.63;;;10.30;99.90;;;;;;5076498;28;20040;-82
2022/11/29 13:02:39;;;;;;;4.30;2.35;;;10.40;99.90;;;;;;5075147;28;20040;-81
2022/11/29 13:05:33;;;;;;;5.97;3.15;;;10.30;99.90;;;;;;5089146;28;20134;-81
2022/11/29 13:08:35;;;;;;;5.13;2.63;;;10.40;99.90;;;;;;5095138;28;20047;-82
2022/11/29 13:11:10;;;;;;;5.30;2.78;;;10.40;99.90;;;;;;5078841;28;20119;-83
2022/11/29 13:13:41;;;;;;;6.88;3.15;;;10.40;99.90;;;;;;5075160;28;20072;-83
2022/11/29 13:16:18;;;;;;;5.28;2.47;;;10.40;99.90;;;;;;5071957;28;20044;-82
2022/11/29 13:18:58;;;;;;;5.28;2.40;;;10.30;99.90;;;;;;5095302;28;20105;-82
2022/11/29 13:21:31;;;;;;;5.53;2.78;;;10.30;99.90;;;;;;5094498;28;20483;-81
2022/11/29 13:24:08;;;;;;;4.00;2.40;;;10.30;99.90;;;;;;5078169;28;20055;-80
2022/11/29 13:26:35;;;;;;;4.28;2.47;;;10.30;99.90;;;;;;5078015;28;20036;-81
2022/11/29 13:29:02;;;;;;;6.50;2.67;;;10.20;99.90;;;;;;5094699;28;20519;-79
2022/11/29 13:31:28;;;;;;;6.40;3.08;;;10.20;99.90;;;;;;5094043;28;20500;-80
2022/11/29 13:34:04;;;;;;;5.10;2.63;;;10.10;99.90;;;;;;5077849;28;20079;-80
2022/11/29 13:36:45;;;;;;;5.05;2.55;;;10.00;99.90;;;;;;5094527;28;20028;-80
2022/11/29 13:39:29;;;;;;;5.53;2.45;;;10.00;99.90;;;;;;5111360;28;20413;-80
2022/11/29 13:42:01;;;;;;;3.72;2.03;;;10.00;99.90;;;;;;5069724;28;20119;-80
2022/11/29 13:44:34;;;;;;;4.43;2.35;;;10.00;99.90;;;;;;5078255;28;20051;-80
2022/11/29 13:47:15;;;;;;;4.43;2.45;;;10.00;99.90;;;;;;5094305;28;20115;-81
2022/11/29 13:50:01;;;;;;;3.33;1.95;;;9.90;99.90;;;;;;5094284;28;20039;-82
2022/11/29 13:52:42;;;;;;;3.88;2.30;;;9.90;99.90;;;;;;5094841;28;20044;-82
2022/11/29 13:55:11;;;;;;;4.28;2.47;;;9.90;99.90;;;;;;5077795;28;20039;-82
2022/11/29 13:57:52;;;;;;;4.35;2.45;;;9.80;99.90;;;;;;5094192;28;20130;-82
2022/11/29 14:00:43;;;;;;;4.60;2.10;;;9.90;99.90;;;;;;5093626;28;20475;-81
2022/11/29 14:03:27;;;;;;;4.55;2.03;;;9.80;99.90;;;;;;5075933;28;20036;-81
2022/11/29 14:06:12;;;;;;;3.47;2.15;;;9.80;99.90;;;;;;5065425;28;20044;-85
2022/11/29 14:09:23;;;;;;;5.15;2.25;;;9.70;99.90;;;;;;5076943;28;20476;-82